HGEU_C1

2016-07-16 to 2016-07-30

Task 9

2016-07-29 Task 9

Race to Goal 100.2 km

Provisional

No Leg Dist. Id Radius Open Close Coordinates Altitude
1 0.0 km D01141 400 m 12:00 14:20 Lat: 41.34351 Lon: 21.25678 1415 m
2 SS 1.8 km B34058 28000 m 13:10 19:30 Lat: 41.08547 Lon: 21.37005 581 m
3 20.5 km B34058 10000 m 13:10 19:30 Lat: 41.08547 Lon: 21.37005 581 m
4 46.2 km B43077 10000 m 13:10 19:30 Lat: 41.46675 Lon: 21.54592 770 m
5 97.3 km BV0100 19000 m 13:10 19:30 Lat: 40.75776 Lon: 21.46057 0 m
6 ES 99.6 km A08060 1000 m 13:10 19:30 Lat: 40.95222 Lon: 21.40222 605 m
7 100.2 km A08060 400 m 13:10 19:30 Lat: 40.95222 Lon: 21.40222 605 m
StartGate(s): 13:10, 13:30

# Id Name Nat Glider Sponsor SS ES Time km/h Distance Dist.
Points
Lead.
Points
Time
Points
Arr.
Pos.
Points
Total
1 141 Christian Ciech M ITA Icaro 2000 Laminar AeCI - Icaro 2000 - Woody Valley - GForce 13:10:00 15:11:14 02:01:14 48.4 100.17 384.9 100.1 430.6 76.9 993
2 169 Antoine Boisselier M FRA ICARO 2000 LAMINAR Skyline Salomon Bipbip Adidas Eyewear 13:10:00 15:11:23 02:01:23 48.3 100.17 384.9 100.2 424.3 73.7 983
3 201 Alessandro Ploner M ITA icaro laminar z9 Aero Club D'Italia, Adidas 13:10:00 15:11:32 02:01:32 48.3 100.17 384.9 100.1 420.6 70.6 976
4 2112 Olav Opsanger M NOR Moyes Litespeed RX3.5 Technora Moyes 13:10:00 15:11:51 02:01:51 48.1 100.17 384.9 96.4 414.5 67.7 964
5 9999 Attila Bertok M HUN Moyes RX5 13:10:00 15:12:41 02:02:41 47.8 100.17 384.9 98.5 402.1 64.8 950
6 88 Peter Neuenschwander M SUI AEROS Combat C 13:10:00 15:12:58 02:02:58 47.7 100.17 384.9 104.5 398.5 59.4 947
7 8008 Grant Crossingham M GBR Moyes RX3.5 13:10:00 15:12:54 02:02:54 47.7 100.17 384.9 96.2 399.3 62.1 943
8 187 Dan Vyhnalik M CZE Aeros Combat 13.5 LAA CR 13:10:00 15:13:56 02:03:56 47.3 100.17 384.9 107.6 387.5 54.4 934
9 52 Anton Struganov M RUS Moyes Litespeed RX 13:10:00 15:13:25 02:03:25 47.5 100.17 384.9 93.8 393.2 56.9 929
10 171 Filippo Oppici M ITA Wills Wing T2C 144 AeCI 13:10:00 15:14:38 02:04:38 47.1 100.17 384.9 96.6 380.3 52.1 914
11 124 Balazs Ujhelyi M HUN Moyes RX4 13:10:00 15:14:42 02:04:42 47.0 100.17 384.9 95.2 379.7 49.8 910
12 120 Pedro L. Garcia M ESP Wills Wing T2C 144 DIGIFLY VARIO-GPS / WILLS WING 13:10:00 15:14:46 02:04:46 47.0 100.17 384.9 95.0 379.0 47.7 907
13 6114 Dave Matthews M GBR Moyes RX3.5 Skybean 13:10:00 15:14:47 02:04:47 47.0 100.17 384.9 91.9 378.9 45.6 901
14 2 Endre Kovacs M HUN Aeros Combat GT 13,5 13:10:00 15:16:35 02:06:35 46.3 100.17 384.9 103.0 362.6 43.7 894
15 79 Evgen Lysenko M UKR Aeros Combat GT 12.7 Aeros, FireFly 13:10:00 15:17:11 02:07:11 46.1 100.17 384.9 91.1 357.6 41.8 875
16 104 Zac Majors M USA Wills Wing T2C 144 Wills Wing, Flytec 13:10:00 15:20:01 02:10:01 45.1 100.17 384.9 98.5 336.0 38.3 858
17 7775 Doenhuber Gerd M GER Moyes RX3.5 2015 Skyline Flightgear 13:10:00 15:20:17 02:10:17 45.0 100.17 384.9 93.2 334.1 36.7 849
18 6969 Suan Selenati M ITA WILLS WING T2C AeCI - FRIULI VENEZIA GIULIA 13:10:00 15:19:47 02:09:47 45.2 100.17 384.9 84.9 337.7 40.0 848
19 71 Vollmer Achim M GER Aeros GT Skyline Flightgear 13:10:00 15:20:28 02:10:28 45.0 100.17 384.9 84.7 332.8 35.1 838
20 3 Jochen Zeischka M BEL Moyes Litespeed RX4 Adidas Eyewear, BMW 13:10:00 15:20:44 02:10:44 44.9 100.17 384.9 84.7 330.9 33.6 834
21 333 Arne Tanzer M NED Icaro2000 Laminar Flying Dutchman, Woody Valley 13:10:00 15:28:38 02:18:38 42.3 100.17 384.9 78.8 281.4 32.3 777
22 108 Primoz Gricar M GER Aeros Combat 13,5 C Aeros 13:10:00 15:29:57 02:19:57 41.9 100.17 384.9 83.5 273.9 30.9 773
23 20 Christian Baertschi M SUI Aeros Combat 13.5 C Didu 13:10:00 15:33:30 02:23:30 40.9 100.17 384.9 87.0 254.7 28.5 755
24 6738 Joost Eertman M NED Icaro Laminar 13:10:00 15:31:17 02:21:17 41.5 100.17 384.9 69.3 266.6 29.7 751
25 233 Mario Campanella M NED Wills Wing T2C 144 me, myself and I 13:10:00 15:35:34 02:25:34 40.3 100.17 384.9 84.9 244.0 27.4 741
26 30 Franz Herrmann M SUI Aeros Combat 13.5 Herrmann Holzbau GmbH 13:10:00 15:35:51 02:25:51 40.2 100.17 384.9 85.1 242.5 25.4 738
27 24 Davide Guiducci M ITA Icaro 2000 Laminar 13.2 A&C d'Italia Icaro 2000 Woody Walley 13:10:00 15:35:47 02:25:47 40.2 100.17 384.9 81.1 242.9 26.4 735
28 35 Oliver Chitty M GBR Moyes Rx5 MoyesUK, CrossCountry 13:10:00 15:36:16 02:26:16 40.1 100.17 384.9 72.5 240.4 24.5 722
29 33 Petr Polach M CZE Aeros Combat gt 13.5 LAA CR, ISIT, SkyDrop 13:10:00 15:38:59 02:28:59 39.4 100.17 384.9 80.5 226.9 22.8 715
30 7780 Elek Czigler M HUN 13:10:00 15:39:40 02:29:40 39.2 100.17 384.9 70.2 223.6 22.1 701
31 189 Petr Benes M CZE aeros combat 14.2 09 Houska a Douda pasířství, LAA CR 13:10:00 15:38:56 02:28:56 39.4 100.17 384.9 58.0 227.1 23.6 694
32 67 Peter Kejzar M SLO Aeros Combat 09 - 13:10:00 15:41:44 02:31:44 38.7 100.17 384.9 71.4 213.6 21.4 691
33 1111 Michele Perlo M ITA WW T2C 144 13:10:00 15:45:11 02:35:11 37.8 100.17 384.9 73.1 197.6 20.7 676
34 16 Mario Alonzi M FRA AEROS AEROS AEROS 13:10:00 15:46:36 02:36:36 37.5 100.17 384.9 73.8 191.1 19.6 669
35 3017 Luke Nicol M GBR Moyes Rx4 Cross country, rotor uk 13:10:00 15:47:37 02:37:37 37.2 100.17 384.9 76.1 186.6 19.1 667
36 111 Tschurnig Guenther M AUT Icaro Icaro 2000 Z9 14.1 Wirth 13:10:00 15:48:57 02:38:57 36.9 100.17 384.9 80.6 180.6 18.6 665
37 8 Carl Wallbank M GBR Moyes RX3.5 Moyes UK 13:10:00 15:46:16 02:36:16 37.5 100.17 384.9 66.1 192.6 20.1 664
38 78 Gijs Wanders M NED Wills Wing T2C 154 - 13:10:00 15:50:22 02:40:22 36.6 100.17 384.9 82.1 174.4 18.2 660
39 59 Antonio Leton M ESP aeros combat gt lc arq 13:10:00 15:51:13 02:41:13 36.4 100.17 384.9 68.5 170.7 17.8 642
40 123 Roland Woehrle M GER Moyes Litespeed RX 3.5 skyline sparkasse haslach/zell 13:10:00 15:51:53 02:41:53 36.2 100.17 384.9 60.2 167.9 17.5 631
41 156 Beat Howald M SUI Wills-Wing T2C 144 Paratte Optique swiss olympic 13:10:00 15:54:57 02:44:57 35.6 100.17 384.9 69.2 154.8 16.1 625
41 100 Justinas Pleikys M LTU MOYES RX5 LSPSF.LT 13:10:00 15:52:21 02:42:21 36.1 100.17 384.9 57.3 165.8 17.2 625
43 42 Sasha Serebrennikova F RUS Moyes Litespeed RX3 AVIONICUS 13:10:00 15:53:11 02:43:11 35.9 100.17 384.9 59.6 162.3 16.6 623
44 56 Jiri Nadvornik M CZE WW T2C LAA 13:10:00 15:54:27 02:44:27 35.7 100.17 384.9 64.4 156.9 16.2 622
45 13 Kajo Clauss M GER Aeros 12,4 GT 13:10:00 15:52:22 02:42:22 36.1 100.17 384.9 53.1 165.8 16.9 621
46 7 Yevgen Bublyk M UKR Aeros Combat GT 12.4 13:10:00 15:55:31 02:45:31 35.4 100.17 384.9 67.0 152.4 15.9 620
47 21 Laszlo Okros M HUN Moyes Litespeed S3.5 13:10:00 15:57:55 02:47:55 34.9 100.17 384.9 53.4 142.5 15.8 597
47 23 Miroslav Cap M CZE Wills Wing T2c LAA ČR 13:10:00 15:53:26 02:43:26 35.9 100.17 384.9 34.8 161.2 16.4 597
49 31 Laurent Thevenot M FRA WW T2C La mouette 13:10:00 15:58:50 02:48:50 34.7 100.17 384.9 46.9 138.7 15.6 586
50 22 Christian Preininger M AUT Moyes Litespeed RX 3 www.fetz-anger.at 13:10:00 15:58:00 02:48:00 34.9 100.17 384.9 35.4 142.1 15.7 578
51 4 Kamil Demirkan M TUR Aeros Combat 09 GT 13,2 Turkish Aeronautical Association 13:10:00 16:00:23 02:50:23 34.4 100.17 384.9 38.3 132.4 15.4 571
52 1234 Tom Weissenberger M AUT Moyes Litespeed RX3.5 TechnoraSpok Westover Companies/Moyes/Skyline/Cam4Pro/Naviter 13:10:00 16:00:06 02:50:06 34.5 100.17 384.9 22.3 133.5 15.5 556
53 11 Nikola Barakovski M MKD Aeros Combat GT 13,7 13:10:00 91.67 368.6 67.8 436
54 8018 Veselin Jeliazkov M BUL 13:10:00 86.07 349.2 71.6 421
55 7777 Jiri Gut M CZE Wills Wing T2C LAA 13:10:00 83.78 336.1 75.7 412
56 2433 Emiel Jansen M NED icaro2000 laminar https://www.mooietenten.nl 13:10:00 87.52 355.7 48.3 404
57 7786 Stanislav Galovec M SLO Litespeed Rs 13:10:00 81.23 320.2 77.3 398
58 18 Sander van Schaik M NED Icaro Laminar sanderdelta.nl 13:10:00 89.63 363.4 28.1 392
59 116 Ataulfo J Fernandez Montero M ESP Wills Wing T2C 144c JUAKIAIR 13:10:00 89.07 361.6 29.2 391
60 4564 Matjaz Klemencic M SLO Moyes Litespeed RX Red Bull, Naviter, Gloryfy 13:10:00 81.17 319.7 70.6 390
61 57 Damien Zahn M SUI Moyes Litespeed RX3 Swiss Olympic 13:10:00 81.40 321.2 65.9 387
62 83 Brad Porter M AUS Moyes RX3.5 13:10:00 86.14 349.5 24.9 374
63 7791 Eduardo Oliveira M BRA WW T2C CORINTHIANS 13:10:00 76.31 285.1 65.0 350
64 17 Francois ISOARD M FRA ww t2c144 ffvl 13:10:00 80.46 314.3 27.4 342
65 5 Canberg Ozveren M TUR AEROS Combat 09 GT - 13.2 Turkish Aeronautical Association 13:10:00 70.31 255.4 23.4 279
66 777 Konstantin Lukyanov M RUS Moyes Litespeed rx 13:10:00 70.30 255.4 15.6 271
67 64 Coen Jansen M NED Wils Wing T2C 154 13:10:00 65.12 236.4 236
68 1000 Janez Grm M SLO Aeros gt 13.2 udarnik 13:10:00 55.04 205.1 6.2 211
69 26 Tullio Gervasoni M ITA Wills Wing T2C 144 AeCI 13:10:00 43.53 176.8 13.0 190
70 39 Gordon Rigg M GBR Moyes Rx3.5 Skybean 13:10:00 42.62 174.4 11.1 186
71 7785 Franc Peternel M SLO WillsWing T2c 13:10:00 42.73 174.7 10.6 185
72 7788 Dimitar Halachev M BUL 13:10:00 42.09 172.4 5.8 178
73 28 Attila Kis M HUN Aeros Combat 13:10:00 41.10 168.0 4.1 172
73 74 Eric Mathurin M FRA MOYES RS 3.5 13:10:00 41.11 168.0 4.2 172
75 666 Fredy Bircher M SUI Moyes Litespeed RX3.5 SHV 13:10:00 39.41 158.3 2.4 161
76 10 Dimitrios Ioannidis M GRE Wills Wing T2C 144 www.livetrack24.com 13:10:00 38.87 154.9 155
77 222 Daniel Martin Mota M ESP Wills Wing T2C 144 13:10:00 38.80 154.4 154
78 101 Julia Burlachenko F UKR Aeros Combat GT 12,4 13:30:00 38.57 152.7 153
79 667 Thomas Fraissl M AUT Moyes Litespeed RX 13:10:00 36.31 134.0 134
80 70 Hiroshi Onuma M JPN ICARO2000 Laminar 13.7 nasa 13:30:00 28.23 80.1 80
81 14 Oleg Matvieiev M UKR Aeros Combat GT 13:10:00 17.73 52.7 53
82 99 Alen Milosevic M CRO aeros combatLo8 14 13:10:00 14.35 44.1 44
83 9 Raimund Kaiser M AUT Icaro 2000 Laminar 13.7 13:10:00 12.03 36.7 37

Pilots absent from task (ABS)

Id Name
6 Gennadiy Khramov
19 Lyubomyr Temnyk
69 Saulius Guobuzas
144 Evangelos Papakostas
8016 Ivan Brovc

Pilots not yet processed (NYP)

Id Name

Task statistics

param value
ss_distance 97.759
task_distance 100.167
launch_to_ess_distance 99.567
no_of_pilots_present 83
no_of_pilots_flying 83
no_of_pilots_lo 31
no_of_pilots_reaching_nom_dist 66
no_of_pilots_reaching_es 52
no_of_pilots_reaching_goal 52
sum_flown_distance 7001.418
best_dist 100.167
best_time 2.02055555555556
worst_time 2.83972222222222
no_of_pilots_in_competition 88
no_of_pilots_landed_before_stop 0
sum_dist_over_min 6420.418
sum_real_dist_over_min 6420.418
sum_flown_distances 7001.418
best_real_dist 100.167
last_start_time 2016-07-29T13:30:00+02:00
first_start_time 2016-07-29T13:10:00+02:00
first_finish_time 2016-07-29T15:11:14+02:00
max_time_to_get_time_points 3.44201802623692
no_of_pilots_with_time_points 52
goalratio 0.626506024096386
arrival_weight 0.0768890338535154
departure_weight 0
leading_weight 0.107644647394922
time_weight 0.430578589579686
distance_weight 0.384887729171877
smallest_leading_coefficient 1.56547396849884
available_points_distance 384.887729171877
available_points_time 430.578589579686
available_points_departure 0
available_points_leading 107.644647394922
available_points_arrival 76.8890338535154
time_validity 1
launch_validity 1
distance_validity 1
stop_validity 1
day_quality 1
ftv_day_validity 1
time_points_stop_correction 0

Scoring formula settings

param value
id GAP2015
min_dist 7
nom_dist 70
nom_time 1.5
nom_launch 0.96
nom_goal 0.3
day_quality_override 0
bonus_gr 5
jump_the_gun_factor 3
jump_the_gun_max 300
normalize_1000_before_day_quality 0
time_points_if_not_in_goal 0.8
use_1000_points_for_max_day_quality 0
use_arrival_position_points 1
use_arrival_time_points 0
use_departure_points 0
use_difficulty_for_distance_points 1
use_distance_points 1
use_distance_squared_for_LC 1
use_leading_points 1
use_semi_circle_control_zone_for_goal_line 0
use_time_points 1
final_glide_decelerator none
no_final_glide_decelerator_reason
min_time_span_for_valid_task 90
score_back_time 15
scoring_altitude qnh
qnh_setting 1020.00
Report created: 2016-07-29T21:30:58+02:00